createdAt,value
2023-01-20T00:00:20.253Z,1.76
2023-01-20T00:03:09.831Z,1.80
2023-01-20T00:05:39.148Z,1.78
2023-01-20T00:08:08.721Z,1.68
2023-01-20T00:10:39.637Z,1.60
2023-01-20T00:13:09.121Z,1.56
2023-01-20T00:15:39.861Z,1.48
2023-01-20T00:18:09.393Z,1.38
2023-01-20T00:20:38.723Z,1.35
2023-01-20T00:23:08.325Z,1.28
2023-01-20T00:25:37.727Z,1.28
2023-01-20T00:28:07.585Z,1.22
2023-01-20T00:30:38.239Z,1.21
2023-01-20T00:33:07.807Z,1.26
2023-01-20T00:35:38.880Z,1.21
2023-01-20T00:38:08.490Z,1.11
2023-01-20T00:40:37.732Z,1.13
2023-01-20T00:43:07.278Z,1.17
2023-01-20T00:45:36.737Z,1.13
2023-01-20T00:48:08.458Z,1.11
2023-01-20T00:50:37.694Z,1.19
2023-01-20T00:53:07.275Z,1.22
2023-01-20T00:55:36.674Z,1.24
2023-01-20T00:58:06.327Z,1.15
2023-01-20T01:00:35.752Z,1.20
2023-01-20T01:03:07.036Z,1.17
2023-01-20T01:05:36.548Z,1.01
2023-01-20T01:08:06.443Z,0.94
2023-01-20T01:10:35.893Z,1.02
2023-01-20T01:13:06.407Z,1.05
2023-01-20T01:15:35.791Z,0.92
2023-01-20T01:18:06.988Z,0.86
2023-01-20T01:20:36.273Z,1.02
2023-01-20T01:23:05.903Z,0.89
2023-01-20T01:25:35.164Z,0.97
2023-01-20T01:28:05.001Z,0.74
2023-01-20T01:30:34.298Z,0.89
2023-01-20T01:33:04.011Z,0.97
2023-01-20T01:35:34.751Z,1.00
2023-01-20T01:38:04.382Z,1.06
2023-01-20T01:40:34.477Z,1.14
2023-01-20T01:43:04.268Z,1.04
2023-01-20T01:45:35.010Z,0.91
2023-01-20T01:48:09.343Z,1.05
2023-01-20T01:50:45.682Z,0.94
2023-01-20T01:53:16.585Z,0.75
2023-01-20T01:55:50.963Z,0.70
2023-01-20T01:58:25.902Z,0.90
2023-01-20T02:00:55.387Z,0.92
2023-01-20T02:03:25.442Z,0.97
2023-01-20T02:05:57.293Z,1.02
2023-01-20T02:08:27.609Z,1.01
2023-01-20T02:10:56.789Z,0.93
2023-01-20T02:13:26.475Z,0.81
2023-01-20T02:16:04.385Z,0.91
2023-01-20T02:18:47.712Z,0.92
2023-01-20T02:22:03.496Z,0.87
2023-01-20T02:25:20.847Z,0.70
2023-01-20T02:28:33.676Z,0.77
2023-01-20T02:31:36.104Z,0.74
2023-01-20T02:34:13.976Z,0.62
2023-01-20T02:36:49.063Z,0.47
2023-01-20T02:39:27.369Z,0.63
2023-01-20T02:42:04.952Z,0.81
2023-01-20T02:44:42.198Z,0.63
2023-01-20T02:47:18.311Z,0.81
2023-01-20T02:49:53.702Z,0.78
2023-01-20T02:52:26.757Z,0.75
2023-01-20T02:55:00.380Z,0.66
2023-01-20T02:57:34.107Z,0.55
2023-01-20T03:00:09.310Z,0.54
2023-01-20T03:02:41.472Z,0.49
2023-01-20T03:05:19.066Z,0.44
2023-01-20T03:07:52.264Z,0.50
2023-01-20T03:10:26.069Z,0.47
2023-01-20T03:12:59.923Z,0.41
2023-01-20T03:15:37.677Z,0.30
2023-01-20T03:18:07.279Z,0.29
2023-01-20T03:20:38.532Z,0.36
2023-01-20T03:23:08.179Z,0.54
2023-01-20T03:25:39.235Z,0.68
2023-01-20T03:28:09.209Z,0.84
2023-01-20T03:35:44.097Z,0.77
2023-01-20T03:38:13.899Z,0.60
2023-01-20T03:40:50.300Z,0.50
2023-01-20T03:43:30.931Z,0.46
2023-01-20T03:46:06.656Z,0.66
2023-01-20T03:48:43.462Z,0.58
2023-01-20T03:51:19.719Z,0.61
2023-01-20T03:53:54.675Z,0.35
2023-01-20T03:56:28.536Z,0.47
2023-01-20T03:59:01.737Z,0.58
2023-01-20T04:01:36.360Z,0.71
2023-01-20T04:04:10.010Z,0.61
2023-01-20T04:06:43.864Z,0.43
2023-01-20T04:09:18.491Z,0.51
2023-01-20T04:11:47.848Z,0.50
2023-01-20T04:14:17.349Z,0.34
2023-01-20T04:16:53.280Z,0.52
2023-01-20T04:19:22.967Z,0.75
2023-01-20T04:22:01.374Z,0.65
2023-01-20T04:24:37.590Z,0.49
2023-01-20T04:27:06.600Z,0.72
2023-01-20T04:29:36.061Z,0.76
2023-01-20T04:32:05.989Z,0.75
2023-01-20T04:34:35.660Z,0.80
2023-01-20T04:37:06.340Z,0.87
2023-01-20T04:39:35.808Z,1.02
2023-01-20T04:42:06.396Z,0.97
2023-01-20T04:44:35.870Z,1.13
2023-01-20T04:47:05.177Z,1.14
2023-01-20T04:49:35.459Z,1.10
2023-01-20T04:52:06.199Z,1.14
2023-01-20T04:54:36.046Z,1.27
2023-01-20T04:57:05.236Z,1.24
2023-01-20T04:59:34.663Z,1.42
2023-01-20T05:02:04.108Z,1.49
2023-01-20T05:04:33.696Z,1.40
2023-01-20T05:07:02.898Z,1.21
2023-01-20T05:09:33.995Z,1.30
2023-01-20T05:12:03.476Z,1.13
2023-01-20T05:14:32.985Z,1.04
2023-01-20T05:17:02.195Z,0.84
2023-01-20T05:19:31.774Z,0.97
2023-01-20T05:22:01.550Z,0.56
2023-01-20T05:24:32.436Z,0.63
2023-01-20T05:27:02.556Z,0.83
2023-01-20T05:29:32.236Z,0.81
2023-01-20T05:32:01.356Z,0.93
2023-01-20T05:34:30.728Z,0.53
2023-01-20T05:36:59.766Z,0.77
2023-01-20T05:39:29.304Z,0.94
2023-01-20T05:41:59.835Z,1.13
2023-01-20T05:44:29.571Z,1.03
2023-01-20T05:46:58.675Z,0.95
2023-01-20T05:49:28.273Z,0.96
2023-01-20T05:51:57.671Z,0.59
2023-01-20T05:54:27.388Z,0.66
2023-01-20T05:56:59.030Z,1.01
2023-01-20T05:59:28.733Z,1.10
2023-01-20T06:01:58.874Z,0.73
2023-01-20T06:04:29.029Z,0.84
2023-01-20T06:06:58.934Z,0.65
2023-01-20T06:09:28.386Z,0.72
2023-01-20T06:11:59.094Z,0.59
2023-01-20T06:14:28.655Z,0.34
2023-01-20T06:16:57.960Z,0.26
2023-01-20T06:19:27.466Z,0.29
2023-01-20T06:21:56.613Z,0.30
2023-01-20T06:24:26.225Z,0.25
2023-01-20T06:26:55.519Z,0.53
2023-01-20T06:29:26.384Z,0.89
2023-01-20T06:31:55.914Z,0.99
2023-01-20T06:34:25.429Z,1.20
2023-01-20T06:36:54.619Z,1.12
2023-01-20T06:39:24.195Z,1.21
2023-01-20T06:41:53.475Z,1.29
2023-01-20T06:44:22.930Z,1.00
2023-01-20T06:46:53.448Z,0.87
2023-01-20T06:49:22.941Z,0.74
2023-01-20T06:51:52.194Z,0.83
2023-01-20T06:54:21.860Z,0.84
2023-01-20T06:56:51.115Z,0.71
2023-01-20T06:59:20.533Z,0.48
2023-01-20T07:01:50.469Z,0.44
2023-01-20T07:04:21.491Z,0.61
2023-01-20T07:06:50.712Z,0.85
2023-01-20T07:09:20.146Z,1.16
2023-01-20T07:11:49.247Z,1.29
2023-01-20T07:14:18.687Z,1.37
2023-01-20T07:16:48.627Z,1.26
2023-01-20T07:19:18.348Z,1.35
2023-01-20T07:21:49.012Z,1.44
2023-01-20T07:24:19.024Z,1.24
2023-01-20T07:26:48.213Z,1.25
2023-01-20T07:29:18.056Z,1.27
2023-01-20T07:31:47.577Z,1.04
2023-01-20T07:34:17.248Z,1.04
2023-01-20T07:36:48.006Z,1.10
2023-01-20T07:39:20.217Z,1.09
2023-01-20T07:41:49.802Z,1.21
2023-01-20T07:44:19.426Z,1.43
2023-01-20T07:46:48.696Z,1.48
2023-01-20T07:49:18.000Z,1.68
2023-01-20T07:51:48.582Z,1.59
2023-01-20T07:54:17.977Z,1.61
2023-01-20T07:56:47.282Z,1.72
2023-01-20T07:59:16.772Z,1.53
2023-01-20T08:01:46.325Z,1.49
2023-01-20T08:04:15.879Z,1.67
2023-01-20T08:06:45.292Z,1.38
2023-01-20T08:09:16.443Z,1.50
2023-01-20T08:11:45.752Z,1.17
2023-01-20T08:14:15.267Z,0.94
2023-01-20T08:16:44.516Z,1.01
2023-01-20T08:19:14.205Z,0.99
2023-01-20T08:21:43.501Z,1.30
2023-01-20T08:24:13.219Z,1.29
2023-01-20T08:26:44.106Z,1.50
2023-01-20T08:29:13.610Z,1.35
2023-01-20T08:31:43.143Z,1.34
2023-01-20T08:34:13.308Z,1.35
2023-01-20T08:36:43.555Z,1.39
2023-01-20T08:39:18.138Z,1.64
2023-01-20T08:41:49.983Z,2.08
2023-01-20T08:44:20.515Z,2.15
2023-01-20T08:46:52.819Z,1.70
2023-01-20T08:49:23.667Z,1.58
2023-01-20T08:51:53.177Z,1.72
2023-01-20T08:54:23.002Z,1.81
2023-01-20T08:56:54.342Z,2.13
2023-01-20T08:59:24.038Z,1.95
2023-01-20T09:01:53.229Z,1.77
2023-01-20T09:04:22.685Z,1.55
2023-01-20T09:06:52.860Z,1.38
2023-01-20T09:09:24.335Z,1.93
2023-01-20T09:11:54.854Z,1.97
2023-01-20T09:14:26.115Z,1.85
2023-01-20T09:16:55.490Z,1.65
2023-01-20T09:19:24.991Z,2.13
2023-01-20T09:21:54.528Z,2.01
2023-01-20T09:24:24.715Z,2.28
2023-01-20T09:26:56.907Z,2.41
2023-01-20T09:29:26.825Z,2.65
2023-01-20T09:31:58.942Z,2.66
2023-01-20T09:34:30.340Z,2.49
2023-01-20T09:37:21.426Z,2.52
2023-01-20T09:40:08.566Z,2.49
2023-01-20T09:43:10.000Z,2.56
2023-01-20T09:45:46.593Z,2.11
2023-01-20T09:48:43.949Z,2.17
2023-01-20T09:51:39.268Z,2.22
2023-01-20T09:54:15.963Z,1.79
2023-01-20T09:56:51.326Z,1.80
2023-01-20T09:59:28.282Z,2.03
2023-01-20T10:02:02.741Z,2.24
2023-01-20T10:04:38.075Z,1.95
2023-01-20T10:07:12.844Z,2.25
2023-01-20T10:09:47.418Z,2.79
2023-01-20T10:12:21.385Z,3.00
2023-01-20T10:14:56.253Z,3.06
2023-01-20T10:17:31.025Z,2.75
2023-01-20T10:20:06.151Z,2.24
2023-01-20T10:22:43.814Z,2.54
2023-01-20T10:25:19.330Z,2.96
2023-01-20T10:27:54.702Z,3.33
2023-01-20T10:30:31.539Z,3.51
2023-01-20T10:33:06.739Z,3.52
2023-01-20T10:35:38.970Z,3.50
2023-01-20T10:38:19.283Z,3.21
2023-01-20T10:40:55.130Z,3.03
2023-01-20T10:43:25.038Z,3.52
2023-01-20T10:46:12.627Z,3.39
2023-01-20T10:49:03.634Z,3.10
2023-01-20T10:51:44.229Z,3.27
2023-01-20T10:54:27.957Z,3.32
2023-01-20T10:57:00.436Z,3.02
2023-01-20T10:59:32.946Z,2.72
2023-01-20T11:02:15.454Z,2.58
2023-01-20T11:04:46.663Z,3.05
2023-01-20T11:07:19.718Z,2.95
2023-01-20T11:09:50.608Z,2.91
2023-01-20T11:12:30.422Z,3.06
2023-01-20T11:15:02.064Z,3.15
2023-01-20T11:17:32.889Z,3.39
2023-01-20T11:20:07.443Z,3.26
2023-01-20T11:22:42.644Z,3.51
2023-01-20T11:25:26.811Z,3.60
2023-01-20T11:27:58.268Z,3.87
2023-01-20T11:30:30.911Z,3.62
2023-01-20T11:33:19.407Z,3.21
2023-01-20T11:36:03.136Z,3.39
2023-01-20T11:38:42.175Z,3.46
2023-01-20T11:41:21.463Z,2.62
2023-01-20T11:43:51.576Z,2.82
2023-01-20T11:46:28.525Z,3.39
2023-01-20T11:49:18.868Z,3.02
2023-01-20T11:51:51.884Z,3.30
2023-01-20T11:54:23.134Z,3.55
2023-01-20T11:56:56.683Z,3.53
2023-01-20T11:59:29.193Z,3.24
2023-01-20T12:02:01.945Z,3.23
2023-01-20T12:04:58.237Z,3.50
2023-01-20T12:07:32.094Z,3.40
2023-01-20T12:10:06.247Z,3.73
2023-01-20T12:12:43.886Z,3.97
2023-01-20T12:15:22.096Z,4.06
2023-01-20T12:17:59.853Z,4.24
2023-01-20T12:20:45.677Z,4.36
2023-01-20T12:23:33.971Z,3.83
2023-01-20T12:26:05.958Z,3.93
2023-01-20T12:28:42.260Z,3.87
2023-01-20T12:31:12.558Z,3.99
2023-01-20T12:33:45.526Z,3.81
2023-01-20T12:36:43.181Z,3.90
2023-01-20T12:39:40.054Z,3.57
2023-01-20T12:42:29.920Z,3.16
2023-01-20T12:45:05.074Z,3.49
2023-01-20T12:47:50.060Z,3.76
2023-01-20T12:50:31.939Z,4.03
2023-01-20T12:53:21.439Z,4.23
2023-01-20T12:56:04.529Z,4.39
2023-01-20T12:58:44.749Z,4.37
2023-01-20T13:01:41.133Z,4.04
2023-01-20T13:04:37.833Z,3.96
2023-01-20T13:12:14.560Z,3.48
2023-01-20T13:14:47.405Z,3.09
2023-01-20T13:17:23.621Z,3.34
2023-01-20T13:19:57.880Z,3.46
2023-01-20T13:22:28.008Z,3.82
2023-01-20T13:24:59.680Z,3.53
2023-01-20T13:27:34.092Z,3.76
2023-01-20T13:30:05.167Z,3.54
2023-01-20T13:32:36.894Z,3.61
2023-01-20T13:35:46.159Z,3.19
2023-01-20T13:38:24.331Z,3.34
2023-01-20T13:40:56.925Z,3.50
2023-01-20T13:43:47.030Z,3.14
2023-01-20T13:46:48.618Z,2.70
2023-01-20T13:49:47.583Z,2.91
2023-01-20T13:52:17.502Z,3.14
2023-01-20T13:54:48.822Z,3.21
2023-01-20T13:57:37.984Z,3.21
2023-01-20T14:00:17.846Z,3.23
2023-01-20T14:02:48.885Z,2.91
2023-01-20T14:05:31.325Z,3.08
2023-01-20T14:08:01.396Z,3.35
2023-01-20T14:10:31.028Z,3.53
2023-01-20T14:13:00.177Z,3.34
2023-01-20T14:15:40.096Z,3.26
2023-01-20T14:18:18.907Z,2.79
2023-01-20T14:21:16.889Z,2.85
2023-01-20T14:23:47.230Z,2.74
2023-01-20T14:26:23.857Z,2.85
2023-01-20T14:28:54.650Z,2.73
2023-01-20T14:31:37.648Z,2.65
2023-01-20T14:34:26.914Z,2.66
2023-01-20T14:36:58.894Z,2.67
2023-01-20T14:39:30.387Z,2.74
2023-01-20T14:42:01.135Z,2.71
2023-01-20T14:44:33.325Z,2.66
2023-01-20T14:47:05.672Z,2.60
2023-01-20T14:49:39.440Z,2.51
2023-01-20T14:52:13.782Z,2.46
2023-01-20T14:54:45.613Z,2.20
2023-01-20T15:02:31.840Z,2.27
2023-01-20T15:05:02.001Z,2.18
2023-01-20T15:07:31.413Z,2.04
2023-01-20T15:10:09.103Z,2.05
2023-01-20T15:12:53.687Z,2.13
2023-01-20T15:15:28.666Z,2.13
2023-01-20T15:18:23.694Z,2.12
2023-01-20T15:21:11.727Z,2.15
2023-01-20T15:23:51.299Z,2.26
2023-01-20T15:26:27.801Z,2.06
2023-01-20T15:28:58.714Z,2.07
2023-01-20T15:31:28.382Z,2.12
2023-01-20T15:33:58.973Z,2.42
2023-01-20T15:36:33.170Z,2.35
2023-01-20T15:39:02.444Z,2.40
2023-01-20T15:41:31.863Z,2.06
2023-01-20T15:44:01.013Z,2.03
2023-01-20T15:46:30.896Z,1.89
2023-01-20T15:49:01.896Z,2.04
2023-01-20T15:56:45.172Z,2.38
2023-01-20T15:59:17.225Z,2.21
2023-01-20T16:01:50.023Z,2.24
2023-01-20T16:04:24.529Z,2.21
2023-01-20T16:06:54.304Z,2.15
2023-01-20T16:09:29.985Z,2.28
2023-01-20T16:11:59.357Z,2.23
2023-01-20T16:14:29.105Z,2.39
2023-01-20T16:16:58.548Z,2.31
2023-01-20T16:19:29.564Z,2.36
2023-01-20T16:21:58.739Z,2.30
2023-01-20T16:24:28.263Z,2.14
2023-01-20T16:26:57.594Z,2.00
2023-01-20T16:29:27.101Z,2.14
2023-01-20T16:31:56.414Z,2.11
2023-01-20T16:34:25.890Z,2.17
2023-01-20T16:36:56.382Z,2.07
2023-01-20T16:39:25.899Z,1.83
2023-01-20T16:41:55.226Z,1.78
2023-01-20T16:44:25.002Z,2.09
2023-01-20T16:46:54.305Z,1.96
2023-01-20T16:49:23.848Z,1.77
2023-01-20T16:51:53.022Z,1.91
2023-01-20T16:54:24.057Z,1.92
2023-01-20T16:56:53.199Z,1.35
2023-01-20T16:59:22.862Z,1.84
2023-01-20T17:01:52.306Z,1.95
2023-01-20T17:04:21.969Z,2.00
2023-01-20T17:06:53.328Z,2.05
2023-01-20T17:09:24.450Z,2.15
2023-01-20T17:11:53.779Z,1.90
2023-01-20T17:14:23.348Z,2.02
2023-01-20T17:16:52.691Z,2.13
2023-01-20T17:19:22.247Z,1.91
2023-01-20T17:21:51.640Z,1.81
2023-01-20T17:24:21.291Z,1.82
2023-01-20T17:26:51.950Z,1.70
2023-01-20T17:29:22.053Z,1.70
2023-01-20T17:31:51.544Z,1.25
2023-01-20T17:34:21.214Z,1.63
2023-01-20T17:36:50.832Z,1.86
2023-01-20T17:39:20.365Z,1.78
2023-01-20T17:41:50.876Z,1.79
2023-01-20T17:44:20.404Z,2.00
2023-01-20T17:46:51.046Z,1.78
2023-01-20T17:49:20.497Z,1.75
2023-01-20T17:51:49.942Z,1.57
2023-01-20T17:54:19.794Z,1.62
2023-01-20T17:56:50.511Z,1.86
2023-01-20T17:59:20.002Z,1.98
2023-01-20T18:01:52.465Z,1.90
2023-01-20T18:04:22.261Z,1.57
2023-01-20T18:06:51.565Z,1.81
2023-01-20T18:09:21.133Z,1.92
2023-01-20T18:11:51.821Z,1.82
2023-01-20T18:14:21.441Z,1.96
2023-01-20T18:16:50.704Z,1.81
2023-01-20T18:19:20.365Z,1.88
2023-01-20T18:21:49.781Z,1.92
2023-01-20T18:24:19.416Z,2.06
2023-01-20T18:26:50.128Z,2.06
2023-01-20T18:29:19.637Z,2.12
2023-01-20T18:31:49.541Z,2.17
2023-01-20T18:34:19.236Z,2.10
2023-01-20T18:36:49.297Z,2.17
2023-01-20T18:39:20.285Z,2.17
2023-01-20T18:41:51.991Z,2.34
2023-01-20T18:44:23.229Z,2.12
2023-01-20T18:46:52.483Z,2.15
2023-01-20T18:49:22.191Z,2.15
2023-01-20T18:51:51.479Z,2.19
2023-01-20T18:54:22.312Z,2.27
2023-01-20T18:56:53.234Z,2.39
2023-01-20T18:59:22.702Z,2.44
2023-01-20T19:01:52.032Z,2.36
2023-01-20T19:04:21.869Z,2.40
2023-01-20T19:06:51.184Z,2.53
2023-01-20T19:09:21.220Z,2.42
2023-01-20T19:11:52.006Z,2.23
2023-01-20T19:14:21.620Z,2.32
2023-01-20T19:16:51.016Z,2.31
2023-01-20T19:19:20.610Z,2.34
2023-01-20T19:21:52.966Z,2.33
2023-01-20T19:24:27.294Z,2.31
2023-01-20T19:27:00.351Z,2.11
2023-01-20T19:29:30.376Z,2.07
2023-01-20T19:31:59.652Z,2.17
2023-01-20T19:34:29.357Z,2.24
2023-01-20T19:36:59.980Z,2.41
2023-01-20T19:39:29.556Z,2.43
2023-01-20T19:42:00.827Z,2.56
2023-01-20T19:44:30.728Z,2.38
2023-01-20T19:47:04.193Z,2.27
2023-01-20T19:49:33.821Z,2.20
2023-01-20T19:52:03.203Z,1.94
2023-01-20T19:54:33.775Z,1.99
2023-01-20T19:57:04.626Z,2.15
2023-01-20T19:59:34.154Z,2.07
2023-01-20T20:02:03.782Z,2.17
2023-01-20T20:04:33.611Z,2.11
2023-01-20T20:07:03.176Z,2.16
2023-01-20T20:09:32.865Z,2.19
2023-01-20T20:12:06.167Z,2.23
2023-01-20T20:14:35.875Z,2.36
2023-01-20T20:17:05.320Z,2.32
2023-01-20T20:19:35.090Z,2.56
2023-01-20T20:22:04.434Z,2.47
2023-01-20T20:24:34.207Z,2.52
2023-01-20T20:27:05.169Z,2.43
2023-01-20T20:29:34.874Z,2.22
2023-01-20T20:32:04.149Z,2.26
2023-01-20T20:34:34.321Z,2.28
2023-01-20T20:37:04.049Z,2.34
2023-01-20T20:39:33.995Z,2.18
2023-01-20T20:42:04.832Z,2.28
2023-01-20T20:44:35.041Z,2.46
2023-01-20T20:47:04.415Z,2.37
2023-01-20T20:49:34.173Z,2.51
2023-01-20T20:52:03.746Z,2.51
2023-01-20T20:54:33.282Z,2.55
2023-01-20T20:57:03.910Z,2.56
2023-01-20T20:59:33.483Z,2.65
2023-01-20T21:02:02.850Z,2.66
2023-01-20T21:04:32.618Z,2.69
2023-01-20T21:07:02.264Z,2.72
2023-01-20T21:09:31.805Z,2.69
2023-01-20T21:12:01.041Z,2.59
2023-01-20T21:14:31.933Z,2.48
2023-01-20T21:17:01.484Z,2.53
2023-01-20T21:19:31.864Z,2.45
2023-01-20T21:22:01.007Z,2.55
2023-01-20T21:24:30.634Z,2.63
2023-01-20T21:27:01.427Z,2.62
2023-01-20T21:29:32.302Z,2.52
2023-01-20T21:32:01.495Z,2.56
2023-01-20T21:34:31.134Z,2.53
2023-01-20T21:37:00.523Z,2.56
2023-01-20T21:39:30.184Z,2.48
2023-01-20T21:41:59.359Z,2.40
2023-01-20T21:44:33.065Z,2.33
2023-01-20T21:47:05.375Z,2.19
2023-01-20T21:49:52.455Z,2.00
2023-01-20T21:52:41.325Z,2.09
2023-01-20T21:55:12.802Z,2.14
2023-01-20T21:57:42.048Z,2.09
2023-01-20T22:00:13.066Z,2.15
2023-01-20T22:02:45.770Z,1.99
2023-01-20T22:05:15.604Z,2.07
2023-01-20T22:07:47.876Z,2.07
2023-01-20T22:10:18.040Z,2.06
2023-01-20T22:12:47.630Z,1.98
2023-01-20T22:15:17.305Z,2.03
2023-01-20T22:17:47.916Z,2.07
2023-01-20T22:20:18.073Z,2.08
2023-01-20T22:22:47.580Z,2.11
2023-01-20T22:25:18.372Z,2.26
2023-01-20T22:27:49.921Z,2.28
2023-01-20T22:30:19.892Z,2.45
2023-01-20T22:32:50.851Z,2.56
2023-01-20T22:35:20.674Z,2.59
2023-01-20T22:37:49.791Z,2.47
2023-01-20T22:40:19.470Z,2.65
2023-01-20T22:42:48.610Z,2.68
2023-01-20T22:45:18.177Z,2.76
2023-01-20T22:47:47.419Z,2.64
2023-01-20T22:50:18.937Z,2.74
2023-01-20T22:52:48.239Z,2.72
2023-01-20T22:55:17.805Z,2.83
2023-01-20T22:57:47.250Z,2.83
2023-01-20T23:00:19.010Z,2.81
2023-01-20T23:02:48.634Z,2.97
2023-01-20T23:05:19.609Z,3.02
2023-01-20T23:07:48.851Z,2.79
2023-01-20T23:10:32.588Z,2.85
2023-01-20T23:13:01.975Z,2.99
2023-01-20T23:15:31.583Z,2.97
2023-01-20T23:18:00.813Z,2.95
2023-01-20T23:20:31.759Z,2.88
2023-01-20T23:23:00.937Z,3.01
2023-01-20T23:25:30.548Z,2.97
2023-01-20T23:27:59.788Z,2.95
2023-01-20T23:30:29.451Z,2.86
2023-01-20T23:32:58.666Z,2.79
2023-01-20T23:35:28.304Z,2.75
2023-01-20T23:37:58.936Z,2.52
2023-01-20T23:40:30.311Z,2.67
2023-01-20T23:42:59.523Z,2.52
2023-01-20T23:45:29.291Z,2.85
2023-01-20T23:47:58.599Z,2.77
2023-01-20T23:50:28.074Z,2.83
2023-01-20T23:52:58.788Z,2.87
2023-01-20T23:55:28.329Z,2.83
2023-01-20T23:57:57.889Z,2.87
